createdAt,value
2018-02-05T00:00:29.985Z,0.00
2018-02-05T00:01:29.976Z,0.00
2018-02-05T00:02:29.970Z,0.00
2018-02-05T00:03:29.955Z,0.00
2018-02-05T00:04:29.945Z,0.00
2018-02-05T00:05:29.936Z,0.00
2018-02-05T00:06:29.927Z,0.00
2018-02-05T00:07:29.916Z,0.00
2018-02-05T00:08:29.907Z,0.00
2018-02-05T00:09:29.896Z,0.00
2018-02-05T00:10:29.895Z,0.00
2018-02-05T00:11:29.878Z,0.00
2018-02-05T00:12:29.870Z,0.00
2018-02-05T00:13:29.853Z,0.00
2018-02-05T00:14:29.844Z,0.00
2018-02-05T00:15:29.843Z,0.00
2018-02-05T00:16:29.822Z,0.00
2018-02-05T00:17:29.813Z,0.00
2018-02-05T00:18:29.806Z,0.00
2018-02-05T00:19:29.793Z,0.00
2018-02-05T00:20:29.785Z,0.00
2018-02-05T00:21:29.777Z,0.00
2018-02-05T00:22:29.777Z,0.00
2018-02-05T00:23:29.754Z,0.00
2018-02-05T00:24:29.741Z,0.00
2018-02-05T00:25:29.733Z,0.00
2018-02-05T00:26:29.727Z,0.00
2018-02-05T00:27:29.712Z,0.00
2018-02-05T00:28:29.702Z,0.00
2018-02-05T00:29:29.698Z,0.00
2018-02-05T00:30:29.682Z,0.00
2018-02-05T00:31:29.672Z,0.00
2018-02-05T00:32:29.658Z,0.00
2018-02-05T00:33:29.659Z,0.00
2018-02-05T00:34:29.641Z,0.00
2018-02-05T00:35:29.631Z,0.00
2018-02-05T00:36:29.626Z,0.00
2018-02-05T00:37:29.610Z,0.00
2018-02-05T00:38:29.598Z,0.00
2018-02-05T00:39:29.604Z,0.00
2018-02-05T00:40:29.582Z,0.00
2018-02-05T00:41:29.570Z,0.00
2018-02-05T00:42:29.560Z,0.00
2018-02-05T00:43:29.554Z,0.00
2018-02-05T00:44:29.548Z,0.00
2018-02-05T00:45:29.530Z,0.00
2018-02-05T00:46:29.521Z,0.00
2018-02-05T00:47:29.510Z,0.00
2018-02-05T00:48:29.498Z,0.00
2018-02-05T00:49:29.489Z,0.00
2018-02-05T00:50:29.480Z,0.00
2018-02-05T00:51:29.469Z,0.00
2018-02-05T00:52:29.459Z,0.00
2018-02-05T00:53:29.449Z,0.00
2018-02-05T00:54:29.439Z,0.00
2018-02-05T00:55:29.437Z,0.00
2018-02-05T00:56:29.428Z,0.00
2018-02-05T00:57:29.408Z,0.00
2018-02-05T00:58:29.403Z,0.00
2018-02-05T00:59:29.389Z,0.00
2018-02-05T01:00:29.379Z,0.00
2018-02-05T01:01:29.368Z,0.00
2018-02-05T01:02:29.360Z,0.00
2018-02-05T01:03:29.348Z,0.00
2018-02-05T01:04:29.337Z,0.00
2018-02-05T01:05:29.330Z,0.00
2018-02-05T01:06:29.326Z,0.00
2018-02-05T01:07:29.307Z,0.00
2018-02-05T01:08:29.299Z,0.00
2018-02-05T01:09:29.286Z,0.00
2018-02-05T01:10:29.282Z,0.00
2018-02-05T01:11:29.272Z,0.00
2018-02-05T01:12:29.257Z,0.00
2018-02-05T01:13:29.247Z,0.00
2018-02-05T01:14:29.240Z,0.00
2018-02-05T01:15:29.226Z,0.00
2018-02-05T01:16:29.218Z,0.00
2018-02-05T01:17:29.206Z,0.00
2018-02-05T01:18:29.197Z,0.00
2018-02-05T01:19:29.186Z,0.00
2018-02-05T01:20:29.178Z,0.00
2018-02-05T01:21:29.165Z,0.00
2018-02-05T01:22:29.158Z,0.00
2018-02-05T01:23:29.146Z,0.00
2018-02-05T01:24:29.135Z,0.00
2018-02-05T01:25:29.132Z,0.00
2018-02-05T01:26:29.117Z,0.00
2018-02-05T01:27:29.108Z,0.00
2018-02-05T01:28:29.096Z,0.00
2018-02-05T01:29:29.088Z,0.00
2018-02-05T01:30:29.077Z,0.00
2018-02-05T01:31:29.072Z,0.00
2018-02-05T01:32:29.056Z,0.00
2018-02-05T01:33:29.044Z,0.00
2018-02-05T01:34:29.036Z,0.00
2018-02-05T01:35:29.026Z,0.00
2018-02-05T01:36:29.014Z,0.00
2018-02-05T01:37:29.006Z,0.00
2018-02-05T01:38:29.006Z,0.00
2018-02-05T01:39:28.987Z,0.00
2018-02-05T01:40:28.976Z,0.00
2018-02-05T01:41:28.966Z,0.00
2018-02-05T01:42:28.964Z,0.00
2018-02-05T01:43:28.946Z,0.00
2018-02-05T01:44:28.935Z,0.00
2018-02-05T01:45:28.933Z,0.00
2018-02-05T01:46:28.919Z,0.00
2018-02-05T01:47:28.907Z,0.00
2018-02-05T01:48:28.896Z,0.00
2018-02-05T01:49:28.885Z,0.00
2018-02-05T01:50:28.875Z,0.00
2018-02-05T01:51:28.866Z,0.00
2018-02-05T01:52:28.857Z,0.00
2018-02-05T01:53:28.845Z,0.00
2018-02-05T01:54:28.835Z,0.00
2018-02-05T01:55:28.825Z,0.00
2018-02-05T01:56:28.818Z,0.00
2018-02-05T01:57:28.811Z,0.00
2018-02-05T01:58:28.795Z,0.00
2018-02-05T01:59:28.789Z,0.00
2018-02-05T02:00:28.775Z,0.00
2018-02-05T02:01:28.764Z,0.00
2018-02-05T02:02:28.755Z,0.00
2018-02-05T02:03:28.754Z,0.00
2018-02-05T02:04:28.735Z,0.00
2018-02-05T02:05:28.726Z,0.00
2018-02-05T02:06:28.720Z,0.00
2018-02-05T02:07:28.706Z,0.00
2018-02-05T02:08:28.693Z,0.00
2018-02-05T02:09:28.685Z,0.00
2018-02-05T02:10:28.679Z,0.00
2018-02-05T02:11:28.669Z,0.00
2018-02-05T02:12:28.653Z,0.00
2018-02-05T02:13:28.646Z,0.00
2018-02-05T02:14:28.633Z,0.00
2018-02-05T02:15:28.623Z,0.00
2018-02-05T02:16:28.612Z,0.00
2018-02-05T02:17:28.604Z,0.00
2018-02-05T02:18:28.594Z,0.00
2018-02-05T02:19:28.584Z,0.00
2018-02-05T02:20:28.573Z,0.00
2018-02-05T02:21:28.564Z,0.00
2018-02-05T02:22:28.553Z,0.00
2018-02-05T02:23:28.544Z,0.00
2018-02-05T02:24:28.533Z,0.00
2018-02-05T02:25:28.525Z,0.00
2018-02-05T02:26:28.517Z,0.00
2018-02-05T02:27:28.503Z,0.00
2018-02-05T02:28:28.495Z,0.00
2018-02-05T02:29:28.482Z,0.00
2018-02-05T02:30:28.482Z,0.00
2018-02-05T02:31:28.463Z,0.00
2018-02-05T02:32:28.462Z,0.00
2018-02-05T02:33:28.441Z,0.00
2018-02-05T02:34:28.434Z,0.00
2018-02-05T02:35:28.421Z,0.00
2018-02-05T02:36:28.411Z,0.00
2018-02-05T02:37:28.404Z,0.00
2018-02-05T02:38:28.391Z,0.00
2018-02-05T02:39:28.384Z,0.00
2018-02-05T02:40:28.369Z,0.00
2018-02-05T02:41:28.364Z,0.00
2018-02-05T02:42:28.356Z,0.00
2018-02-05T02:43:28.340Z,0.00
2018-02-05T02:44:28.339Z,0.00
2018-02-05T02:45:28.318Z,0.00
2018-02-05T02:46:28.308Z,0.00
2018-02-05T02:47:28.299Z,0.00
2018-02-05T02:48:28.287Z,0.00
2018-02-05T02:49:28.277Z,0.00
2018-02-05T02:50:28.275Z,0.00
2018-02-05T02:51:28.256Z,0.00
2018-02-05T02:52:28.245Z,0.00
2018-02-05T02:53:28.235Z,0.00
2018-02-05T02:54:28.224Z,0.00
2018-02-05T02:55:28.221Z,0.00
2018-02-05T02:56:28.203Z,0.00
2018-02-05T02:57:28.194Z,0.00
2018-02-05T02:58:28.184Z,0.00
2018-02-05T02:59:28.173Z,0.00
2018-02-05T03:00:28.161Z,0.00
2018-02-05T03:01:28.152Z,0.00
2018-02-05T03:02:28.146Z,0.00
2018-02-05T03:03:28.134Z,0.00
2018-02-05T03:04:28.120Z,0.00
2018-02-05T03:05:28.114Z,0.00
2018-02-05T03:06:28.108Z,0.00
2018-02-05T03:07:28.089Z,0.00
2018-02-05T03:08:28.081Z,0.00
2018-02-05T03:09:28.069Z,0.00
2018-02-05T03:10:28.062Z,0.00
2018-02-05T03:11:28.050Z,0.00
2018-02-05T03:12:28.038Z,0.00
2018-02-05T03:13:28.028Z,0.00
2018-02-05T03:14:28.015Z,0.00
2018-02-05T03:15:28.006Z,0.00
2018-02-05T03:16:27.993Z,0.00
2018-02-05T03:17:27.984Z,0.00
2018-02-05T03:18:27.975Z,0.00
2018-02-05T03:19:27.964Z,0.00
2018-02-05T03:20:27.952Z,0.00
2018-02-05T03:21:27.942Z,0.00
2018-02-05T03:22:27.933Z,0.00
2018-02-05T03:23:27.922Z,0.00
2018-02-05T03:24:27.912Z,0.00
2018-02-05T03:25:27.898Z,0.00
2018-02-05T03:26:27.893Z,0.00
2018-02-05T03:27:27.881Z,0.00
2018-02-05T03:28:27.874Z,0.00
2018-02-05T03:29:27.862Z,0.00
2018-02-05T03:30:27.848Z,0.00
2018-02-05T03:31:27.859Z,0.00
2018-02-05T03:32:27.824Z,0.00
2018-02-05T03:33:27.813Z,0.00
2018-02-05T03:34:27.815Z,0.00
2018-02-05T03:35:27.792Z,0.00
2018-02-05T03:36:27.780Z,0.00
2018-02-05T03:37:27.775Z,0.00
2018-02-05T03:38:27.762Z,0.00
2018-02-05T03:39:27.796Z,0.00
2018-02-05T03:40:27.739Z,0.00
2018-02-05T03:41:27.738Z,0.00
2018-02-05T03:42:27.717Z,0.00
2018-02-05T03:43:27.707Z,0.00
2018-02-05T03:44:27.720Z,0.00
2018-02-05T03:45:27.689Z,0.00
2018-02-05T03:46:27.673Z,0.00
2018-02-05T03:47:27.661Z,0.00
2018-02-05T03:48:27.659Z,0.00
2018-02-05T03:49:27.662Z,0.00
2018-02-05T03:50:27.630Z,0.00
2018-02-05T03:51:27.624Z,0.00
2018-02-05T03:52:27.621Z,0.00
2018-02-05T03:53:27.601Z,0.00
2018-02-05T03:54:27.588Z,0.00
2018-02-05T03:55:27.575Z,0.00
2018-02-05T03:56:27.564Z,0.00
2018-02-05T03:57:27.555Z,0.00
2018-02-05T03:58:27.546Z,0.00
2018-02-05T03:59:27.532Z,0.00
2018-02-05T04:00:27.525Z,0.00
2018-02-05T04:01:27.512Z,0.00
2018-02-05T04:02:27.507Z,0.00
2018-02-05T04:03:27.492Z,0.00
2018-02-05T04:04:27.479Z,0.00
2018-02-05T04:05:27.467Z,0.00
2018-02-05T04:06:27.460Z,0.00
2018-02-05T04:07:27.445Z,0.00
2018-02-05T04:08:27.480Z,0.00
2018-02-05T04:09:27.425Z,0.00
2018-02-05T04:10:27.414Z,0.00
2018-02-05T04:11:27.399Z,0.00
2018-02-05T04:12:27.400Z,0.00
2018-02-05T04:13:27.384Z,0.00
2018-02-05T04:14:27.369Z,0.00
2018-02-05T04:15:27.359Z,0.00
2018-02-05T04:16:27.345Z,0.00
2018-02-05T04:17:27.335Z,0.00
2018-02-05T04:18:27.327Z,0.00
2018-02-05T04:19:27.312Z,0.00
2018-02-05T04:20:27.304Z,0.00
2018-02-05T04:21:27.290Z,0.00
2018-02-05T04:22:27.279Z,0.00
2018-02-05T04:23:28.081Z,0.00
2018-02-05T04:24:27.258Z,0.00
2018-02-05T04:25:27.247Z,0.00
2018-02-05T04:26:27.237Z,0.00
2018-02-05T04:27:27.226Z,0.00
2018-02-05T04:28:27.211Z,0.00
2018-02-05T04:29:27.201Z,0.00
2018-02-05T04:30:27.201Z,0.00
2018-02-05T04:31:27.180Z,0.00
2018-02-05T04:32:27.168Z,0.00
2018-02-05T04:33:27.157Z,0.00
2018-02-05T04:34:27.152Z,0.00
2018-02-05T04:35:27.133Z,0.00
2018-02-05T04:36:27.123Z,0.00
2018-02-05T04:37:27.116Z,0.00
2018-02-05T04:38:27.104Z,0.00
2018-02-05T04:39:27.135Z,0.00
2018-02-05T04:40:27.079Z,0.00
2018-02-05T04:41:27.067Z,0.00
2018-02-05T04:42:27.057Z,0.00
2018-02-05T04:43:27.051Z,0.00
2018-02-05T04:44:27.034Z,0.00
2018-02-05T04:45:27.024Z,0.00
2018-02-05T04:46:27.037Z,0.00
2018-02-05T04:47:27.002Z,0.00
2018-02-05T04:48:26.990Z,0.00
2018-02-05T04:49:26.987Z,0.00
2018-02-05T04:50:26.969Z,0.00
2018-02-05T04:51:26.959Z,0.00
2018-02-05T04:52:26.944Z,0.00
2018-02-05T04:53:26.935Z,0.00
2018-02-05T04:54:26.926Z,0.00
2018-02-05T04:55:26.914Z,0.00
2018-02-05T04:56:26.901Z,0.00
2018-02-05T04:57:26.890Z,0.00
2018-02-05T04:58:26.877Z,0.00
2018-02-05T04:59:26.870Z,0.00
2018-02-05T05:00:26.857Z,0.00
2018-02-05T05:01:26.844Z,0.00
2018-02-05T05:02:26.834Z,0.00
2018-02-05T05:03:26.824Z,0.00
2018-02-05T05:04:26.811Z,0.00
2018-02-05T05:05:26.811Z,0.00
2018-02-05T05:06:26.789Z,0.00
2018-02-05T05:07:26.779Z,0.00
2018-02-05T05:08:26.773Z,0.00
2018-02-05T05:09:26.756Z,0.00
2018-02-05T05:10:26.744Z,0.00
2018-02-05T05:11:26.734Z,0.00
2018-02-05T05:12:26.726Z,0.00
2018-02-05T05:13:26.713Z,0.00
2018-02-05T05:14:26.701Z,0.00
2018-02-05T05:15:26.686Z,0.00
2018-02-05T05:16:26.680Z,0.00
2018-02-05T05:17:26.672Z,0.00
2018-02-05T05:18:26.656Z,0.00
2018-02-05T05:19:26.645Z,0.00
2018-02-05T05:20:26.635Z,0.00
2018-02-05T05:21:26.623Z,0.00
2018-02-05T05:22:26.612Z,0.00
2018-02-05T05:23:26.601Z,0.00
2018-02-05T05:24:26.588Z,0.00
2018-02-05T05:25:26.576Z,0.00
2018-02-05T05:26:26.569Z,0.00
2018-02-05T05:27:26.559Z,0.00
2018-02-05T05:28:26.544Z,0.00
2018-02-05T05:29:26.535Z,0.00
2018-02-05T05:30:26.548Z,0.00
2018-02-05T05:31:26.511Z,0.00
2018-02-05T05:32:26.504Z,0.00
2018-02-05T05:33:26.489Z,0.00
2018-02-05T05:34:26.484Z,0.00
2018-02-05T05:35:26.466Z,0.00
2018-02-05T05:36:26.456Z,0.00
2018-02-05T05:37:26.468Z,0.00
2018-02-05T05:38:26.432Z,0.00
2018-02-05T05:39:26.421Z,0.00
2018-02-05T05:40:26.436Z,0.00
2018-02-05T05:41:26.400Z,0.00
2018-02-05T05:42:26.389Z,0.00
2018-02-05T05:43:26.381Z,0.00
2018-02-05T05:44:26.364Z,0.00
2018-02-05T05:45:26.355Z,0.00
2018-02-05T05:46:26.342Z,0.00
2018-02-05T05:47:26.331Z,0.00
2018-02-05T05:48:26.320Z,0.00
2018-02-05T05:49:26.308Z,0.00
2018-02-05T05:50:26.298Z,0.00
2018-02-05T05:51:26.292Z,0.00
2018-02-05T05:52:26.280Z,0.00
2018-02-05T05:53:26.268Z,0.00
2018-02-05T05:54:26.254Z,0.00
2018-02-05T05:55:26.243Z,0.00
2018-02-05T05:56:26.231Z,0.00
2018-02-05T05:57:26.221Z,0.00
2018-02-05T05:58:26.210Z,0.00
2018-02-05T05:59:26.201Z,0.00
2018-02-05T06:00:26.232Z,0.00
2018-02-05T06:01:26.180Z,0.00
2018-02-05T06:02:20.956Z,0.00
2018-02-05T06:03:20.923Z,0.00
2018-02-05T06:05:15.284Z,0.00
2018-02-05T06:06:15.243Z,0.00
2018-02-05T06:08:09.654Z,0.00
2018-02-05T06:09:09.589Z,0.00
2018-02-05T06:11:03.935Z,0.00
2018-02-05T06:12:03.919Z,0.00
2018-02-05T06:13:58.288Z,0.00
2018-02-05T06:14:58.257Z,0.00
2018-02-05T06:16:52.667Z,0.00
2018-02-05T06:17:52.596Z,0.00
2018-02-05T06:19:46.976Z,4.00
2018-02-05T06:20:46.924Z,0.00
2018-02-05T06:22:41.302Z,4.00
2018-02-05T06:23:41.268Z,4.00
2018-02-05T06:25:35.644Z,4.00
2018-02-05T06:26:35.609Z,4.00
2018-02-05T06:28:29.979Z,4.00
2018-02-05T06:29:29.942Z,8.00
2018-02-05T06:31:24.352Z,8.00
2018-02-05T06:32:24.343Z,8.00
2018-02-05T06:34:18.756Z,12.00
2018-02-05T06:35:18.673Z,12.00
2018-02-05T06:37:13.023Z,20.00
2018-02-05T06:38:13.006Z,20.00
2018-02-05T06:40:07.376Z,24.00
2018-02-05T06:41:07.341Z,28.00
2018-02-05T06:43:01.712Z,36.00
2018-02-05T06:44:01.697Z,40.00
2018-02-05T06:45:56.048Z,52.00
2018-02-05T06:46:56.008Z,52.00
2018-02-05T06:48:50.358Z,64.00
2018-02-05T06:49:50.340Z,72.00
2018-02-05T06:51:44.736Z,88.00
2018-02-05T06:52:44.686Z,92.00
2018-02-05T06:54:39.025Z,116.00
2018-02-05T06:55:39.042Z,124.00
2018-02-05T06:57:33.378Z,144.00
2018-02-05T06:58:33.343Z,156.00
2018-02-05T07:00:27.753Z,172.00
2018-02-05T07:01:27.682Z,176.00
2018-02-05T07:03:22.021Z,184.00
2018-02-05T07:04:22.006Z,188.00
2018-02-05T07:06:16.383Z,216.00
2018-02-05T07:07:16.343Z,236.00
2018-02-05T07:09:20.491Z,260.00
2018-02-05T07:10:10.687Z,276.00
2018-02-05T07:12:05.078Z,304.00
2018-02-05T07:13:05.010Z,324.00
2018-02-05T07:14:59.400Z,332.00
2018-02-05T07:15:59.344Z,344.00
2018-02-05T07:17:53.734Z,356.00
2018-02-05T07:18:53.678Z,376.00
2018-02-05T07:20:48.066Z,416.00
2018-02-05T07:21:48.012Z,428.00
2018-02-05T07:23:42.391Z,440.00
2018-02-05T07:24:42.360Z,452.00
2018-02-05T07:25:42.365Z,460.00
2018-02-05T07:26:42.336Z,468.00
2018-02-05T07:27:42.324Z,468.00
2018-02-05T07:28:42.315Z,472.00
2018-02-05T07:29:42.301Z,492.00
2018-02-05T07:30:42.293Z,520.00
2018-02-05T07:31:42.285Z,536.00
2018-02-05T07:32:42.268Z,532.00
2018-02-05T07:33:42.262Z,552.00
2018-02-05T07:34:42.248Z,640.00
2018-02-05T07:35:42.264Z,644.00
2018-02-05T07:36:42.223Z,616.00
2018-02-05T07:37:42.212Z,632.00
2018-02-05T07:38:42.201Z,708.00
2018-02-05T07:39:42.192Z,720.00
2018-02-05T07:40:42.178Z,700.00
2018-02-05T07:41:42.175Z,712.00
2018-02-05T07:42:42.158Z,720.00
2018-02-05T07:43:42.147Z,764.00
2018-02-05T07:44:42.184Z,784.00
2018-02-05T07:45:42.122Z,788.00
2018-02-05T07:46:42.112Z,832.00
2018-02-05T07:47:42.100Z,828.00
2018-02-05T07:48:42.090Z,808.00
2018-02-05T07:49:42.079Z,788.00
2018-02-05T07:50:42.074Z,776.00
2018-02-05T07:51:42.058Z,820.00
2018-02-05T07:52:42.045Z,876.00
2018-02-05T07:53:42.033Z,916.00
2018-02-05T07:54:42.022Z,936.00
2018-02-05T07:55:42.014Z,956.00
2018-02-05T07:56:42.001Z,920.00
2018-02-05T07:57:41.998Z,880.00
2018-02-05T07:58:41.980Z,904.00
2018-02-05T07:59:41.968Z,948.00
2018-02-05T08:00:41.957Z,996.00
2018-02-05T08:01:41.952Z,1032.00
2018-02-05T08:02:41.933Z,1140.00
2018-02-05T08:03:41.923Z,1132.00
2018-02-05T08:04:41.912Z,1088.00
2018-02-05T08:05:41.899Z,1072.00
2018-02-05T08:06:41.890Z,1080.00
2018-02-05T08:07:41.880Z,1152.00
2018-02-05T08:08:41.868Z,1228.00
2018-02-05T08:09:41.856Z,1204.00
2018-02-05T08:10:41.844Z,1200.00
2018-02-05T08:11:41.839Z,1212.00
2018-02-05T08:12:41.824Z,1264.00
2018-02-05T08:13:41.815Z,1336.00
2018-02-05T08:14:41.866Z,1404.00
2018-02-05T08:15:41.789Z,1504.00
2018-02-05T08:16:41.780Z,1448.00
2018-02-05T08:17:41.768Z,1504.00
2018-02-05T08:18:41.757Z,1612.00
2018-02-05T08:19:41.747Z,1624.00
2018-02-05T08:20:41.752Z,1740.00
2018-02-05T08:21:41.728Z,1672.00
2018-02-05T08:22:41.716Z,1692.00
2018-02-05T08:23:41.702Z,1604.00
2018-02-05T08:24:41.693Z,1552.00
2018-02-05T08:25:41.681Z,1480.00
2018-02-05T08:26:41.675Z,1508.00
2018-02-05T08:27:41.676Z,1576.00
2018-02-05T08:28:41.651Z,1560.00
2018-02-05T08:29:41.638Z,1504.00
2018-02-05T08:30:41.627Z,1468.00
2018-02-05T08:31:41.615Z,1516.00
2018-02-05T08:32:41.606Z,1596.00
2018-02-05T08:33:41.595Z,1576.00
2018-02-05T08:34:41.587Z,1556.00
2018-02-05T08:35:41.576Z,1544.00
2018-02-05T08:36:41.567Z,1480.00
2018-02-05T08:37:41.566Z,1444.00
2018-02-05T08:38:41.540Z,1392.00
2018-02-05T08:39:41.533Z,1428.00
2018-02-05T08:40:41.533Z,1568.00
2018-02-05T08:41:41.510Z,1624.00
2018-02-05T08:42:41.506Z,1564.00
2018-02-05T08:43:41.493Z,1500.00
2018-02-05T08:44:41.482Z,1436.00
2018-02-05T08:45:41.469Z,1428.00
2018-02-05T08:46:41.458Z,1456.00
2018-02-05T08:47:41.449Z,1444.00
2018-02-05T08:48:41.443Z,1420.00
2018-02-05T08:49:41.426Z,1412.00
2018-02-05T08:50:41.429Z,1424.00
2018-02-05T08:51:41.407Z,1392.00
2018-02-05T08:52:41.396Z,1420.00
2018-02-05T08:53:41.383Z,1460.00
2018-02-05T08:54:41.377Z,1444.00
2018-02-05T08:55:41.372Z,1444.00
2018-02-05T08:56:41.354Z,1500.00
2018-02-05T08:57:41.344Z,1592.00
2018-02-05T08:58:41.332Z,1644.00
2018-02-05T08:59:41.325Z,1580.00
2018-02-05T09:00:41.312Z,1564.00
2018-02-05T09:01:41.304Z,1612.00
2018-02-05T09:02:41.288Z,1612.00
2018-02-05T09:03:41.284Z,1644.00
2018-02-05T09:04:41.273Z,1648.00
2018-02-05T09:05:41.260Z,1644.00
2018-02-05T09:06:41.251Z,1652.00
2018-02-05T09:07:41.239Z,1652.00
2018-02-05T09:08:41.237Z,1648.00
2018-02-05T09:09:41.221Z,1712.00
2018-02-05T09:10:41.208Z,1756.00
2018-02-05T09:11:41.198Z,1680.00
2018-02-05T09:12:41.190Z,1532.00
2018-02-05T09:13:41.178Z,1472.00
2018-02-05T09:14:41.168Z,1464.00
2018-02-05T09:15:41.161Z,1488.00
2018-02-05T09:16:41.150Z,1572.00
2018-02-05T09:17:41.139Z,1528.00
2018-02-05T09:18:41.126Z,1452.00
2018-02-05T09:19:41.155Z,1432.00
2018-02-05T09:20:41.114Z,1500.00
2018-02-05T09:21:41.096Z,1564.00
2018-02-05T09:22:41.084Z,1608.00
2018-02-05T09:23:41.076Z,1532.00
2018-02-05T09:24:41.066Z,1540.00
2018-02-05T09:25:41.096Z,1576.00
2018-02-05T09:26:41.045Z,1504.00
2018-02-05T09:27:41.034Z,1500.00
2018-02-05T09:28:41.055Z,1552.00
2018-02-05T09:29:41.014Z,1532.00
2018-02-05T09:30:41.006Z,1568.00
2018-02-05T09:31:40.995Z,1676.00
2018-02-05T09:32:40.982Z,1692.00
2018-02-05T09:33:40.973Z,1624.00
2018-02-05T09:34:40.964Z,1644.00
2018-02-05T09:35:40.953Z,1752.00
2018-02-05T09:36:40.943Z,1792.00
2018-02-05T09:37:40.931Z,1636.00
2018-02-05T09:38:40.921Z,1512.00
2018-02-05T09:39:40.911Z,1524.00
2018-02-05T09:40:40.902Z,1664.00
2018-02-05T09:41:40.892Z,1816.00
2018-02-05T09:42:40.883Z,1860.00
2018-02-05T09:43:40.872Z,1696.00
2018-02-05T09:44:40.860Z,1576.00
2018-02-05T09:45:40.849Z,1620.00
2018-02-05T09:46:40.838Z,1676.00
2018-02-05T09:47:40.831Z,1708.00
2018-02-05T09:48:40.819Z,1544.00
2018-02-05T09:49:40.808Z,1532.00
2018-02-05T09:50:40.800Z,1608.00
2018-02-05T09:51:40.792Z,1672.00
2018-02-05T09:52:40.781Z,1628.00
2018-02-05T09:53:40.769Z,1612.00
2018-02-05T09:54:40.764Z,1644.00
2018-02-05T09:55:40.751Z,1764.00
2018-02-05T09:56:40.741Z,1856.00
2018-02-05T09:57:40.729Z,1872.00
2018-02-05T09:58:40.721Z,1924.00
2018-02-05T09:59:40.712Z,2048.00
2018-02-05T10:00:40.698Z,2068.00
2018-02-05T10:01:40.696Z,2004.00
2018-02-05T10:02:40.693Z,2036.00
2018-02-05T10:03:40.671Z,2012.00
2018-02-05T10:04:40.662Z,1960.00
2018-02-05T10:05:40.652Z,1960.00
2018-02-05T10:06:40.641Z,1960.00
2018-02-05T10:07:40.630Z,1908.00
2018-02-05T10:08:40.671Z,1904.00
2018-02-05T10:09:40.614Z,1964.00
2018-02-05T10:10:40.602Z,2044.00
2018-02-05T10:11:40.592Z,1992.00
2018-02-05T10:12:40.583Z,2132.00
2018-02-05T10:13:40.573Z,2068.00
2018-02-05T10:14:40.573Z,1948.00
2018-02-05T10:15:40.556Z,1840.00
2018-02-05T10:16:40.545Z,1872.00
2018-02-05T10:17:40.534Z,1856.00
2018-02-05T10:18:40.529Z,1876.00
2018-02-05T10:19:40.523Z,1908.00
2018-02-05T10:20:40.509Z,1924.00
2018-02-05T10:21:40.496Z,1912.00
2018-02-05T10:22:40.487Z,1968.00
2018-02-05T10:23:40.477Z,1968.00
2018-02-05T10:24:40.468Z,1904.00
2018-02-05T10:25:40.459Z,1800.00
2018-02-05T10:26:40.454Z,1660.00
2018-02-05T10:27:40.439Z,1576.00
2018-02-05T10:28:40.432Z,1588.00
2018-02-05T10:29:40.420Z,1636.00
2018-02-05T10:30:40.409Z,1624.00
2018-02-05T10:31:40.414Z,1640.00
2018-02-05T10:32:40.394Z,1712.00
2018-02-05T10:33:40.386Z,1744.00
2018-02-05T10:34:40.372Z,1732.00
2018-02-05T10:35:40.361Z,1764.00
2018-02-05T10:36:40.355Z,1792.00
2018-02-05T10:37:40.343Z,1784.00
2018-02-05T10:38:40.333Z,1780.00
2018-02-05T10:39:40.322Z,1824.00
2018-02-05T10:40:40.312Z,1864.00
2018-02-05T10:41:40.306Z,1840.00
2018-02-05T10:42:40.292Z,1776.00
2018-02-05T10:43:40.285Z,1760.00
2018-02-05T10:44:40.275Z,1756.00
2018-02-05T10:45:40.263Z,1704.00
2018-02-05T10:46:40.256Z,1648.00
2018-02-05T10:47:40.242Z,1516.00
2018-02-05T10:48:40.237Z,1676.00
2018-02-05T10:49:40.230Z,1800.00
2018-02-05T10:50:40.222Z,1820.00
2018-02-05T10:51:40.207Z,1840.00
2018-02-05T10:52:40.195Z,1864.00
2018-02-05T10:53:40.193Z,1920.00
2018-02-05T10:54:40.174Z,1948.00
2018-02-05T10:55:40.164Z,1920.00
2018-02-05T10:56:40.155Z,1964.00
2018-02-05T10:57:40.160Z,1936.00
2018-02-05T10:58:40.134Z,1920.00
2018-02-05T10:59:40.128Z,1812.00
2018-02-05T11:00:40.147Z,1744.00
2018-02-05T11:01:40.105Z,1676.00
2018-02-05T11:02:40.098Z,1652.00
2018-02-05T11:03:40.111Z,1624.00
2018-02-05T11:04:40.078Z,1736.00
2018-02-05T11:05:40.164Z,1768.00
2018-02-05T11:06:40.055Z,1852.00
2018-02-05T11:07:40.046Z,1808.00
2018-02-05T11:08:40.036Z,1728.00
2018-02-05T11:09:40.026Z,1924.00
2018-02-05T11:10:40.017Z,2168.00
2018-02-05T11:11:40.084Z,2156.00
2018-02-05T11:12:39.994Z,2160.00
2018-02-05T11:13:39.986Z,2328.00
2018-02-05T11:14:39.975Z,2556.00
2018-02-05T11:15:39.964Z,2764.00
2018-02-05T11:16:39.957Z,2584.00
2018-02-05T11:17:39.944Z,2360.00
2018-02-05T11:18:39.934Z,2244.00
2018-02-05T11:19:39.925Z,2224.00
2018-02-05T11:20:39.915Z,2128.00
2018-02-05T11:21:39.916Z,2036.00
2018-02-05T11:22:39.894Z,1932.00
2018-02-05T11:23:39.885Z,1980.00
2018-02-05T11:24:39.873Z,2108.00
2018-02-05T11:25:39.867Z,2160.00
2018-02-05T11:26:39.855Z,2188.00
2018-02-05T11:27:39.846Z,2224.00
2018-02-05T11:28:39.872Z,2224.00
2018-02-05T11:29:39.860Z,2212.00
2018-02-05T11:30:39.814Z,2160.00
2018-02-05T11:31:39.805Z,2048.00
2018-02-05T11:32:39.795Z,2024.00
2018-02-05T11:33:39.785Z,2128.00
2018-02-05T11:34:39.778Z,2192.00
2018-02-05T11:35:39.766Z,2124.00
2018-02-05T11:36:39.756Z,2036.00
2018-02-05T11:37:39.745Z,2160.00
2018-02-05T11:38:39.736Z,2344.00
2018-02-05T11:39:39.886Z,2488.00
2018-02-05T11:40:39.715Z,2676.00
2018-02-05T11:41:39.708Z,2868.00
2018-02-05T11:42:39.829Z,2996.00
2018-02-05T11:43:39.749Z,2956.00
2018-02-05T11:44:39.682Z,2936.00
2018-02-05T11:45:39.670Z,2812.00
2018-02-05T11:46:39.699Z,2768.00
2018-02-05T11:47:39.647Z,2676.00
2018-02-05T11:48:39.656Z,2652.00
2018-02-05T11:49:39.628Z,2608.00
2018-02-05T11:50:39.616Z,2596.00
2018-02-05T11:51:39.648Z,2552.00
2018-02-05T11:52:39.597Z,2424.00
2018-02-05T11:53:39.590Z,2264.00
2018-02-05T11:54:39.579Z,2068.00
2018-02-05T11:55:39.693Z,1984.00
2018-02-05T11:56:39.557Z,2032.00
2018-02-05T11:57:39.550Z,2100.00
2018-02-05T11:58:39.536Z,2152.00
2018-02-05T11:59:39.527Z,2256.00
2018-02-05T12:00:39.519Z,2436.00
2018-02-05T12:01:39.514Z,2600.00
2018-02-05T12:02:39.497Z,2844.00
2018-02-05T12:03:39.485Z,2932.00
2018-02-05T12:04:39.480Z,2808.00
2018-02-05T12:05:39.468Z,2600.00
2018-02-05T12:06:39.458Z,2528.00
2018-02-05T12:07:39.452Z,2388.00
2018-02-05T12:08:39.439Z,2348.00
2018-02-05T12:09:39.428Z,2328.00
2018-02-05T12:10:39.422Z,2368.00
2018-02-05T12:11:39.408Z,2340.00
2018-02-05T12:12:39.398Z,2320.00
2018-02-05T12:13:39.389Z,2324.00
2018-02-05T12:14:39.379Z,2280.00
2018-02-05T12:15:39.383Z,2172.00
2018-02-05T12:16:39.361Z,2056.00
2018-02-05T12:17:39.350Z,2044.00
2018-02-05T12:18:39.339Z,2200.00
2018-02-05T12:19:39.330Z,2340.00
2018-02-05T12:20:39.324Z,2340.00
2018-02-05T12:21:39.311Z,2228.00
2018-02-05T12:22:39.299Z,2148.00
2018-02-05T12:23:39.290Z,2008.00
2018-02-05T12:24:39.290Z,1896.00
2018-02-05T12:25:39.270Z,1824.00
2018-02-05T12:26:39.261Z,1740.00
2018-02-05T12:27:39.252Z,1692.00
2018-02-05T12:28:39.240Z,1592.00
2018-02-05T12:29:39.232Z,1508.00
2018-02-05T12:30:39.222Z,1448.00
2018-02-05T12:31:39.212Z,1388.00
2018-02-05T12:32:39.202Z,1340.00
2018-02-05T12:33:39.192Z,1336.00
2018-02-05T12:34:39.186Z,1376.00
2018-02-05T12:35:39.173Z,1468.00
2018-02-05T12:36:39.163Z,1612.00
2018-02-05T12:37:39.152Z,1724.00
2018-02-05T12:38:39.145Z,1792.00
2018-02-05T12:39:39.148Z,1800.00
2018-02-05T12:40:39.123Z,1908.00
2018-02-05T12:41:39.158Z,1952.00
2018-02-05T12:42:39.103Z,1940.00
2018-02-05T12:43:39.095Z,1996.00
2018-02-05T12:44:39.084Z,2004.00
2018-02-05T12:45:39.073Z,1984.00
2018-02-05T12:46:39.064Z,1980.00
2018-02-05T12:47:39.053Z,1864.00
2018-02-05T12:48:39.043Z,1732.00
2018-02-05T12:49:39.032Z,1600.00
2018-02-05T12:50:39.027Z,1452.00
2018-02-05T12:51:39.029Z,1364.00
2018-02-05T12:52:39.003Z,1320.00
2018-02-05T12:53:38.996Z,1312.00
2018-02-05T12:54:38.986Z,1356.00
2018-02-05T12:55:38.974Z,1392.00
2018-02-05T12:56:39.004Z,1368.00
2018-02-05T12:57:38.955Z,1308.00
2018-02-05T12:58:38.941Z,1248.00
2018-02-05T12:59:38.934Z,1216.00
2018-02-05T13:00:38.924Z,1204.00
2018-02-05T13:01:38.916Z,1172.00
2018-02-05T13:02:38.902Z,1124.00
2018-02-05T13:03:38.894Z,1108.00
2018-02-05T13:04:38.908Z,1108.00
2018-02-05T13:05:38.874Z,1096.00
2018-02-05T13:06:38.863Z,1076.00
2018-02-05T13:07:38.857Z,1064.00
2018-02-05T13:08:38.845Z,1068.00